sensor_id;sensor_type;location;lat;lon;timestamp;P1;durP1;ratioP1;P2;durP2;ratioP2
14474;SDS011;7323;50.848;4.334;2023-06-10T00:01:00;10.27;;;7.07;;
14474;SDS011;7323;50.848;4.334;2023-06-10T00:03:26;10.70;;;6.77;;
14474;SDS011;7323;50.848;4.334;2023-06-10T00:05:52;8.90;;;6.63;;
14474;SDS011;7323;50.848;4.334;2023-06-10T00:08:18;8.13;;;7.30;;
14474;SDS011;7323;50.848;4.334;2023-06-10T00:10:45;7.97;;;6.67;;
14474;SDS011;7323;50.848;4.334;2023-06-10T00:13:11;7.90;;;7.00;;
14474;SDS011;7323;50.848;4.334;2023-06-10T00:15:39;8.07;;;6.87;;
14474;SDS011;7323;50.848;4.334;2023-06-10T00:18:05;13.13;;;7.37;;
14474;SDS011;7323;50.848;4.334;2023-06-10T00:20:30;11.07;;;7.40;;
14474;SDS011;7323;50.848;4.334;2023-06-10T00:22:58;7.67;;;6.60;;
14474;SDS011;7323;50.848;4.334;2023-06-10T00:25:26;8.23;;;6.80;;
14474;SDS011;7323;50.848;4.334;2023-06-10T00:27:52;7.67;;;6.83;;
14474;SDS011;7323;50.848;4.334;2023-06-10T00:30:17;7.67;;;6.80;;
14474;SDS011;7323;50.848;4.334;2023-06-10T00:32:43;9.73;;;6.43;;
14474;SDS011;7323;50.848;4.334;2023-06-10T00:35:09;8.57;;;7.57;;
14474;SDS011;7323;50.848;4.334;2023-06-10T00:37:35;8.97;;;6.67;;
14474;SDS011;7323;50.848;4.334;2023-06-10T00:40:02;9.10;;;7.37;;
14474;SDS011;7323;50.848;4.334;2023-06-10T00:42:28;8.33;;;6.77;;
14474;SDS011;7323;50.848;4.334;2023-06-10T00:44:54;9.97;;;7.20;;
14474;SDS011;7323;50.848;4.334;2023-06-10T00:47:20;9.33;;;7.10;;
14474;SDS011;7323;50.848;4.334;2023-06-10T00:49:46;10.00;;;7.50;;
14474;SDS011;7323;50.848;4.334;2023-06-10T00:52:13;7.80;;;7.00;;
14474;SDS011;7323;50.848;4.334;2023-06-10T00:54:43;8.50;;;7.10;;
14474;SDS011;7323;50.848;4.334;2023-06-10T00:57:10;8.00;;;7.13;;
14474;SDS011;7323;50.848;4.334;2023-06-10T00:59:39;7.40;;;6.67;;
14474;SDS011;7323;50.848;4.334;2023-06-10T01:02:06;8.53;;;7.40;;
14474;SDS011;7323;50.848;4.334;2023-06-10T01:04:32;7.77;;;6.97;;
14474;SDS011;7323;50.848;4.334;2023-06-10T01:07:05;9.93;;;7.90;;
14474;SDS011;7323;50.848;4.334;2023-06-10T01:09:42;8.63;;;7.70;;
14474;SDS011;7323;50.848;4.334;2023-06-10T01:12:33;8.50;;;7.50;;
14474;SDS011;7323;50.848;4.334;2023-06-10T01:15:06;10.47;;;7.53;;
14474;SDS011;7323;50.848;4.334;2023-06-10T01:17:36;8.80;;;6.90;;
14474;SDS011;7323;50.848;4.334;2023-06-10T01:20:18;7.60;;;6.90;;
14474;SDS011;7323;50.848;4.334;2023-06-10T01:22:44;8.23;;;7.40;;
14474;SDS011;7323;50.848;4.334;2023-06-10T01:25:10;10.30;;;7.33;;
14474;SDS011;7323;50.848;4.334;2023-06-10T01:27:37;8.00;;;7.20;;
14474;SDS011;7323;50.848;4.334;2023-06-10T01:30:08;7.90;;;7.10;;
14474;SDS011;7323;50.848;4.334;2023-06-10T01:32:45;8.27;;;7.40;;
14474;SDS011;7323;50.848;4.334;2023-06-10T01:35:12;9.23;;;7.43;;
14474;SDS011;7323;50.848;4.334;2023-06-10T01:40:11;8.63;;;7.20;;
14474;SDS011;7323;50.848;4.334;2023-06-10T01:42:44;8.80;;;6.87;;
14474;SDS011;7323;50.848;4.334;2023-06-10T01:45:12;8.30;;;7.23;;
14474;SDS011;7323;50.848;4.334;2023-06-10T01:50:18;7.27;;;6.40;;
14474;SDS011;7323;50.848;4.334;2023-06-10T01:52:47;8.83;;;6.97;;
14474;SDS011;7323;50.848;4.334;2023-06-10T01:55:14;8.13;;;6.80;;
14474;SDS011;7323;50.848;4.334;2023-06-10T01:57:40;9.33;;;7.30;;
14474;SDS011;7323;50.848;4.334;2023-06-10T02:00:06;12.17;;;7.23;;
14474;SDS011;7323;50.848;4.334;2023-06-10T02:02:34;7.80;;;7.00;;
14474;SDS011;7323;50.848;4.334;2023-06-10T02:04:59;8.30;;;7.00;;
14474;SDS011;7323;50.848;4.334;2023-06-10T02:07:30;9.77;;;7.47;;
14474;SDS011;7323;50.848;4.334;2023-06-10T02:12:25;8.87;;;7.40;;
14474;SDS011;7323;50.848;4.334;2023-06-10T02:14:50;7.43;;;6.73;;
14474;SDS011;7323;50.848;4.334;2023-06-10T02:19:46;8.00;;;7.20;;
14474;SDS011;7323;50.848;4.334;2023-06-10T02:22:17;8.37;;;7.40;;
14474;SDS011;7323;50.848;4.334;2023-06-10T02:24:46;9.50;;;6.90;;
14474;SDS011;7323;50.848;4.334;2023-06-10T02:29:44;8.90;;;7.70;;
14474;SDS011;7323;50.848;4.334;2023-06-10T02:32:12;9.17;;;7.33;;
14474;SDS011;7323;50.848;4.334;2023-06-10T02:34:37;8.00;;;7.20;;
14474;SDS011;7323;50.848;4.334;2023-06-10T02:37:09;8.67;;;7.80;;
14474;SDS011;7323;50.848;4.334;2023-06-10T02:42:52;9.27;;;7.63;;
14474;SDS011;7323;50.848;4.334;2023-06-10T02:45:18;9.83;;;7.13;;
14474;SDS011;7323;50.848;4.334;2023-06-10T02:47:44;9.33;;;7.97;;
14474;SDS011;7323;50.848;4.334;2023-06-10T02:50:10;10.27;;;7.77;;
14474;SDS011;7323;50.848;4.334;2023-06-10T02:52:36;8.53;;;7.03;;
14474;SDS011;7323;50.848;4.334;2023-06-10T02:55:02;10.10;;;7.40;;
14474;SDS011;7323;50.848;4.334;2023-06-10T02:57:28;16.30;;;8.40;;
14474;SDS011;7323;50.848;4.334;2023-06-10T02:59:54;8.90;;;7.63;;
14474;SDS011;7323;50.848;4.334;2023-06-10T03:02:21;9.43;;;8.00;;
14474;SDS011;7323;50.848;4.334;2023-06-10T03:04:47;8.70;;;7.77;;
14474;SDS011;7323;50.848;4.334;2023-06-10T03:09:44;9.87;;;7.63;;
14474;SDS011;7323;50.848;4.334;2023-06-10T03:12:16;8.87;;;7.97;;
14474;SDS011;7323;50.848;4.334;2023-06-10T03:14:44;10.50;;;7.50;;
14474;SDS011;7323;50.848;4.334;2023-06-10T03:17:11;9.40;;;7.63;;
14474;SDS011;7323;50.848;4.334;2023-06-10T03:19:37;8.80;;;7.90;;
14474;SDS011;7323;50.848;4.334;2023-06-10T03:22:07;8.87;;;7.97;;
14474;SDS011;7323;50.848;4.334;2023-06-10T03:24:35;11.63;;;7.67;;
14474;SDS011;7323;50.848;4.334;2023-06-10T03:27:01;9.93;;;7.80;;
14474;SDS011;7323;50.848;4.334;2023-06-10T03:29:31;8.53;;;7.50;;
14474;SDS011;7323;50.848;4.334;2023-06-10T03:31:58;10.37;;;8.00;;
14474;SDS011;7323;50.848;4.334;2023-06-10T03:34:24;8.87;;;7.97;;
14474;SDS011;7323;50.848;4.334;2023-06-10T03:36:50;10.03;;;7.83;;
14474;SDS011;7323;50.848;4.334;2023-06-10T03:39:15;8.93;;;7.90;;
14474;SDS011;7323;50.848;4.334;2023-06-10T03:41:41;9.17;;;8.27;;
14474;SDS011;7323;50.848;4.334;2023-06-10T03:44:07;12.57;;;8.57;;
14474;SDS011;7323;50.848;4.334;2023-06-10T03:46:32;11.47;;;7.67;;
14474;SDS011;7323;50.848;4.334;2023-06-10T03:51:29;9.27;;;8.03;;
14474;SDS011;7323;50.848;4.334;2023-06-10T03:53:55;9.87;;;8.50;;
14474;SDS011;7323;50.848;4.334;2023-06-10T03:56:21;9.33;;;8.13;;
14474;SDS011;7323;50.848;4.334;2023-06-10T03:58:46;9.03;;;7.97;;
14474;SDS011;7323;50.848;4.334;2023-06-10T04:01:12;9.27;;;8.37;;
14474;SDS011;7323;50.848;4.334;2023-06-10T04:03:43;11.37;;;8.70;;
14474;SDS011;7323;50.848;4.334;2023-06-10T04:06:08;10.97;;;8.33;;
14474;SDS011;7323;50.848;4.334;2023-06-10T04:08:34;13.43;;;8.07;;
14474;SDS011;7323;50.848;4.334;2023-06-10T04:11:01;9.30;;;8.30;;
14474;SDS011;7323;50.848;4.334;2023-06-10T04:13:27;12.77;;;8.30;;
14474;SDS011;7323;50.848;4.334;2023-06-10T04:15:53;11.00;;;8.03;;
14474;SDS011;7323;50.848;4.334;2023-06-10T04:18:19;9.87;;;7.83;;
14474;SDS011;7323;50.848;4.334;2023-06-10T04:20:46;10.97;;;8.50;;
14474;SDS011;7323;50.848;4.334;2023-06-10T04:23:12;9.60;;;8.07;;
14474;SDS011;7323;50.848;4.334;2023-06-10T04:25:38;14.57;;;8.77;;
14474;SDS011;7323;50.848;4.334;2023-06-10T04:28:04;9.87;;;7.83;;
14474;SDS011;7323;50.848;4.334;2023-06-10T04:30:29;10.13;;;9.03;;
14474;SDS011;7323;50.848;4.334;2023-06-10T04:32:56;9.53;;;8.17;;
14474;SDS011;7323;50.848;4.334;2023-06-10T04:35:22;9.57;;;8.27;;
14474;SDS011;7323;50.848;4.334;2023-06-10T04:37:48;9.53;;;8.50;;
14474;SDS011;7323;50.848;4.334;2023-06-10T04:40:19;10.90;;;7.97;;
14474;SDS011;7323;50.848;4.334;2023-06-10T04:42:51;8.73;;;7.77;;
14474;SDS011;7323;50.848;4.334;2023-06-10T04:45:20;10.27;;;9.27;;
14474;SDS011;7323;50.848;4.334;2023-06-10T04:47:47;9.47;;;8.57;;
14474;SDS011;7323;50.848;4.334;2023-06-10T04:52:59;9.40;;;8.40;;
14474;SDS011;7323;50.848;4.334;2023-06-10T04:55:28;12.03;;;8.60;;
14474;SDS011;7323;50.848;4.334;2023-06-10T04:57:54;9.30;;;8.30;;
14474;SDS011;7323;50.848;4.334;2023-06-10T05:00:20;11.20;;;9.43;;
14474;SDS011;7323;50.848;4.334;2023-06-10T05:02:46;9.20;;;8.13;;
14474;SDS011;7323;50.848;4.334;2023-06-10T05:05:17;10.27;;;8.33;;
14474;SDS011;7323;50.848;4.334;2023-06-10T05:07:43;14.23;;;9.30;;
14474;SDS011;7323;50.848;4.334;2023-06-10T05:10:09;9.77;;;8.77;;
14474;SDS011;7323;50.848;4.334;2023-06-10T05:12:37;10.63;;;8.60;;
14474;SDS011;7323;50.848;4.334;2023-06-10T05:15:11;10.13;;;8.50;;
14474;SDS011;7323;50.848;4.334;2023-06-10T05:20:21;10.47;;;7.80;;
14474;SDS011;7323;50.848;4.334;2023-06-10T05:22:47;9.13;;;8.33;;
14474;SDS011;7323;50.848;4.334;2023-06-10T05:25:12;10.23;;;8.67;;
14474;SDS011;7323;50.848;4.334;2023-06-10T05:27:38;8.37;;;7.57;;
14474;SDS011;7323;50.848;4.334;2023-06-10T05:30:05;9.37;;;8.00;;
14474;SDS011;7323;50.848;4.334;2023-06-10T05:32:32;11.80;;;9.00;;
14474;SDS011;7323;50.848;4.334;2023-06-10T05:34:58;10.27;;;7.73;;
14474;SDS011;7323;50.848;4.334;2023-06-10T05:37:25;9.67;;;8.40;;
14474;SDS011;7323;50.848;4.334;2023-06-10T05:39:50;8.87;;;7.83;;
14474;SDS011;7323;50.848;4.334;2023-06-10T05:42:17;9.53;;;8.60;;
14474;SDS011;7323;50.848;4.334;2023-06-10T05:44:43;8.90;;;8.00;;
14474;SDS011;7323;50.848;4.334;2023-06-10T05:47:09;9.27;;;8.37;;
14474;SDS011;7323;50.848;4.334;2023-06-10T05:49:34;11.47;;;8.00;;
14474;SDS011;7323;50.848;4.334;2023-06-10T05:52:00;9.63;;;7.93;;
14474;SDS011;7323;50.848;4.334;2023-06-10T05:54:26;9.10;;;8.20;;
14474;SDS011;7323;50.848;4.334;2023-06-10T05:56:51;11.83;;;8.27;;
14474;SDS011;7323;50.848;4.334;2023-06-10T05:59:17;8.80;;;7.90;;
14474;SDS011;7323;50.848;4.334;2023-06-10T06:01:43;10.30;;;8.33;;
14474;SDS011;7323;50.848;4.334;2023-06-10T06:04:09;10.30;;;8.40;;
14474;SDS011;7323;50.848;4.334;2023-06-10T06:06:35;10.37;;;8.30;;
14474;SDS011;7323;50.848;4.334;2023-06-10T06:09:04;8.67;;;7.67;;
14474;SDS011;7323;50.848;4.334;2023-06-10T06:11:30;11.73;;;8.03;;
14474;SDS011;7323;50.848;4.334;2023-06-10T06:13:55;11.30;;;8.43;;
14474;SDS011;7323;50.848;4.334;2023-06-10T06:16:21;11.40;;;8.30;;
14474;SDS011;7323;50.848;4.334;2023-06-10T06:18:47;8.40;;;7.60;;
14474;SDS011;7323;50.848;4.334;2023-06-10T06:21:12;9.47;;;8.53;;
14474;SDS011;7323;50.848;4.334;2023-06-10T06:23:40;9.70;;;8.10;;
14474;SDS011;7323;50.848;4.334;2023-06-10T06:26:06;8.57;;;7.67;;
14474;SDS011;7323;50.848;4.334;2023-06-10T06:28:31;10.37;;;8.17;;
14474;SDS011;7323;50.848;4.334;2023-06-10T06:30:58;9.13;;;8.07;;
14474;SDS011;7323;50.848;4.334;2023-06-10T06:33:40;10.47;;;8.43;;
14474;SDS011;7323;50.848;4.334;2023-06-10T06:36:06;9.67;;;8.30;;
14474;SDS011;7323;50.848;4.334;2023-06-10T06:38:32;9.53;;;7.50;;
14474;SDS011;7323;50.848;4.334;2023-06-10T06:40:58;8.87;;;7.97;;
14474;SDS011;7323;50.848;4.334;2023-06-10T06:43:29;10.50;;;7.50;;
14474;SDS011;7323;50.848;4.334;2023-06-10T06:45:56;9.57;;;7.80;;
14474;SDS011;7323;50.848;4.334;2023-06-10T06:48:22;8.47;;;7.63;;
14474;SDS011;7323;50.848;4.334;2023-06-10T06:50:48;10.73;;;7.63;;
14474;SDS011;7323;50.848;4.334;2023-06-10T06:53:18;10.10;;;7.43;;
14474;SDS011;7323;50.848;4.334;2023-06-10T06:55:44;8.90;;;7.73;;
14474;SDS011;7323;50.848;4.334;2023-06-10T06:58:09;11.37;;;7.87;;
14474;SDS011;7323;50.848;4.334;2023-06-10T07:00:35;9.77;;;7.67;;
14474;SDS011;7323;50.848;4.334;2023-06-10T07:03:01;10.10;;;7.57;;
14474;SDS011;7323;50.848;4.334;2023-06-10T07:05:26;12.53;;;8.07;;
14474;SDS011;7323;50.848;4.334;2023-06-10T07:07:53;11.00;;;7.63;;
14474;SDS011;7323;50.848;4.334;2023-06-10T07:10:39;8.77;;;7.27;;
14474;SDS011;7323;50.848;4.334;2023-06-10T07:15:33;10.17;;;7.63;;
14474;SDS011;7323;50.848;4.334;2023-06-10T07:17:59;8.80;;;7.63;;
14474;SDS011;7323;50.848;4.334;2023-06-10T07:20:24;7.70;;;6.97;;
14474;SDS011;7323;50.848;4.334;2023-06-10T07:22:50;11.33;;;7.63;;
14474;SDS011;7323;50.848;4.334;2023-06-10T07:25:17;8.07;;;7.10;;
14474;SDS011;7323;50.848;4.334;2023-06-10T07:27:42;7.77;;;6.97;;
14474;SDS011;7323;50.848;4.334;2023-06-10T07:35:35;7.70;;;6.80;;
14474;SDS011;7323;50.848;4.334;2023-06-10T07:38:01;8.70;;;7.10;;
14474;SDS011;7323;50.848;4.334;2023-06-10T07:40:27;9.00;;;6.70;;
14474;SDS011;7323;50.848;4.334;2023-06-10T07:42:54;9.50;;;6.87;;
14474;SDS011;7323;50.848;4.334;2023-06-10T07:45:22;10.83;;;7.23;;
14474;SDS011;7323;50.848;4.334;2023-06-10T07:47:48;8.23;;;6.83;;
14474;SDS011;7323;50.848;4.334;2023-06-10T07:50:14;8.20;;;6.20;;
14474;SDS011;7323;50.848;4.334;2023-06-10T07:52:39;7.67;;;6.23;;
14474;SDS011;7323;50.848;4.334;2023-06-10T07:55:05;8.83;;;5.70;;
14474;SDS011;7323;50.848;4.334;2023-06-10T07:57:31;7.50;;;5.90;;
14474;SDS011;7323;50.848;4.334;2023-06-10T08:00:01;7.03;;;6.20;;
14474;SDS011;7323;50.848;4.334;2023-06-10T08:02:29;9.70;;;6.53;;
14474;SDS011;7323;50.848;4.334;2023-06-10T08:04:55;10.93;;;7.10;;
14474;SDS011;7323;50.848;4.334;2023-06-10T08:07:21;8.37;;;6.20;;
14474;SDS011;7323;50.848;4.334;2023-06-10T08:09:47;9.00;;;6.60;;
14474;SDS011;7323;50.848;4.334;2023-06-10T08:12:14;8.37;;;6.40;;
14474;SDS011;7323;50.848;4.334;2023-06-10T08:14:40;6.93;;;6.23;;
14474;SDS011;7323;50.848;4.334;2023-06-10T08:17:06;6.97;;;6.20;;
14474;SDS011;7323;50.848;4.334;2023-06-10T08:19:32;8.90;;;6.00;;
14474;SDS011;7323;50.848;4.334;2023-06-10T08:21:57;10.05;;;6.20;;
14474;SDS011;7323;50.848;4.334;2023-06-10T08:24:23;8.48;;;6.22;;
14474;SDS011;7323;50.848;4.334;2023-06-10T08:26:50;8.23;;;6.37;;
14474;SDS011;7323;50.848;4.334;2023-06-10T08:29:15;6.65;;;5.95;;
14474;SDS011;7323;50.848;4.334;2023-06-10T08:31:44;11.40;;;6.28;;
14474;SDS011;7323;50.848;4.334;2023-06-10T08:34:09;7.22;;;6.13;;
14474;SDS011;7323;50.848;4.334;2023-06-10T08:36:35;6.93;;;6.22;;
14474;SDS011;7323;50.848;4.334;2023-06-10T08:39:01;8.20;;;6.10;;
14474;SDS011;7323;50.848;4.334;2023-06-10T08:41:28;7.20;;;6.50;;
14474;SDS011;7323;50.848;4.334;2023-06-10T08:46:28;12.55;;;8.10;;
14474;SDS011;7323;50.848;4.334;2023-06-10T08:48:57;10.45;;;7.22;;
14474;SDS011;7323;50.848;4.334;2023-06-10T08:51:29;10.43;;;6.60;;
14474;SDS011;7323;50.848;4.334;2023-06-10T08:54:09;6.63;;;5.93;;
14474;SDS011;7323;50.848;4.334;2023-06-10T08:56:41;7.75;;;6.15;;
14474;SDS011;7323;50.848;4.334;2023-06-10T08:59:08;8.25;;;5.72;;
14474;SDS011;7323;50.848;4.334;2023-06-10T09:01:34;6.25;;;5.43;;
14474;SDS011;7323;50.848;4.334;2023-06-10T09:04:00;8.05;;;6.18;;
14474;SDS011;7323;50.848;4.334;2023-06-10T09:06:27;7.97;;;5.78;;
14474;SDS011;7323;50.848;4.334;2023-06-10T09:08:54;8.10;;;5.80;;
14474;SDS011;7323;50.848;4.334;2023-06-10T09:11:22;6.60;;;5.32;;
14474;SDS011;7323;50.848;4.334;2023-06-10T09:13:48;7.88;;;5.63;;
14474;SDS011;7323;50.848;4.334;2023-06-10T09:16:13;6.65;;;5.53;;
14474;SDS011;7323;50.848;4.334;2023-06-10T09:18:40;7.10;;;5.50;;
14474;SDS011;7323;50.848;4.334;2023-06-10T09:21:07;7.70;;;5.43;;
14474;SDS011;7323;50.848;4.334;2023-06-10T09:23:32;7.72;;;4.97;;
14474;SDS011;7323;50.848;4.334;2023-06-10T09:26:01;5.80;;;5.25;;
14474;SDS011;7323;50.848;4.334;2023-06-10T09:28:28;7.63;;;5.85;;
14474;SDS011;7323;50.848;4.334;2023-06-10T09:31:06;6.78;;;5.70;;
14474;SDS011;7323;50.848;4.334;2023-06-10T09:33:39;7.75;;;6.35;;
14474;SDS011;7323;50.848;4.334;2023-06-10T09:36:06;6.45;;;5.30;;
14474;SDS011;7323;50.848;4.334;2023-06-10T09:41:23;13.48;;;5.65;;
14474;SDS011;7323;50.848;4.334;2023-06-10T09:44:01;9.68;;;5.50;;
14474;SDS011;7323;50.848;4.334;2023-06-10T09:46:35;11.80;;;5.60;;
14474;SDS011;7323;50.848;4.334;2023-06-10T09:49:09;7.57;;;5.45;;
14474;SDS011;7323;50.848;4.334;2023-06-10T09:51:48;9.95;;;5.45;;
14474;SDS011;7323;50.848;4.334;2023-06-10T09:54:20;7.10;;;5.68;;
14474;SDS011;7323;50.848;4.334;2023-06-10T09:56:51;6.68;;;5.70;;
14474;SDS011;7323;50.848;4.334;2023-06-10T09:59:38;8.95;;;5.75;;
14474;SDS011;7323;50.848;4.334;2023-06-10T10:02:19;9.23;;;5.97;;
14474;SDS011;7323;50.848;4.334;2023-06-10T10:04:47;8.43;;;5.40;;
14474;SDS011;7323;50.848;4.334;2023-06-10T10:13:04;6.40;;;5.80;;
14474;SDS011;7323;50.848;4.334;2023-06-10T10:15:31;9.70;;;5.55;;
14474;SDS011;7323;50.848;4.334;2023-06-10T10:18:12;5.65;;;5.00;;
14474;SDS011;7323;50.848;4.334;2023-06-10T10:20:50;8.85;;;5.97;;
14474;SDS011;7323;50.848;4.334;2023-06-10T10:23:44;6.18;;;5.00;;
14474;SDS011;7323;50.848;4.334;2023-06-10T10:26:24;7.25;;;5.93;;
14474;SDS011;7323;50.848;4.334;2023-06-10T10:28:53;8.43;;;5.45;;
14474;SDS011;7323;50.848;4.334;2023-06-10T10:31:38;6.82;;;5.47;;
14474;SDS011;7323;50.848;4.334;2023-06-10T10:34:15;7.93;;;5.53;;
14474;SDS011;7323;50.848;4.334;2023-06-10T10:36:44;6.85;;;5.35;;
14474;SDS011;7323;50.848;4.334;2023-06-10T10:39:11;7.82;;;5.30;;
14474;SDS011;7323;50.848;4.334;2023-06-10T10:44:34;8.27;;;5.53;;
14474;SDS011;7323;50.848;4.334;2023-06-10T10:50:24;9.35;;;5.60;;
14474;SDS011;7323;50.848;4.334;2023-06-10T10:53:03;8.10;;;4.82;;
14474;SDS011;7323;50.848;4.334;2023-06-10T10:57:59;5.90;;;5.30;;
14474;SDS011;7323;50.848;4.334;2023-06-10T11:00:37;8.18;;;5.65;;
14474;SDS011;7323;50.848;4.334;2023-06-10T11:03:22;8.32;;;5.50;;
14474;SDS011;7323;50.848;4.334;2023-06-10T11:05:53;6.65;;;5.10;;
14474;SDS011;7323;50.848;4.334;2023-06-10T11:10:54;24.42;;;6.05;;
14474;SDS011;7323;50.848;4.334;2023-06-10T11:13:21;8.02;;;5.03;;
14474;SDS011;7323;50.848;4.334;2023-06-10T11:15:51;14.30;;;6.03;;
14474;SDS011;7323;50.848;4.334;2023-06-10T11:20:56;5.95;;;4.68;;
14474;SDS011;7323;50.848;4.334;2023-06-10T11:26:19;8.73;;;4.88;;
14474;SDS011;7323;50.848;4.334;2023-06-10T11:29:07;6.03;;;4.70;;
14474;SDS011;7323;50.848;4.334;2023-06-10T11:34:04;5.90;;;4.65;;
14474;SDS011;7323;50.848;4.334;2023-06-10T11:36:32;7.50;;;4.32;;
14474;SDS011;7323;50.848;4.334;2023-06-10T11:39:03;16.15;;;5.40;;
14474;SDS011;7323;50.848;4.334;2023-06-10T11:41:34;6.00;;;4.50;;
14474;SDS011;7323;50.848;4.334;2023-06-10T11:46:35;11.90;;;5.18;;
14474;SDS011;7323;50.848;4.334;2023-06-10T11:49:02;6.30;;;4.78;;
14474;SDS011;7323;50.848;4.334;2023-06-10T11:51:29;8.50;;;4.97;;
14474;SDS011;7323;50.848;4.334;2023-06-10T11:54:06;7.97;;;5.80;;
14474;SDS011;7323;50.848;4.334;2023-06-10T11:56:34;5.85;;;5.35;;
14474;SDS011;7323;50.848;4.334;2023-06-10T11:59:02;6.43;;;5.60;;
14474;SDS011;7323;50.848;4.334;2023-06-10T12:01:41;7.10;;;5.90;;
14474;SDS011;7323;50.848;4.334;2023-06-10T12:04:22;9.05;;;5.13;;
14474;SDS011;7323;50.848;4.334;2023-06-10T12:06:59;6.78;;;5.22;;
14474;SDS011;7323;50.848;4.334;2023-06-10T12:09:28;45.60;;;8.98;;
14474;SDS011;7323;50.848;4.334;2023-06-10T12:19:57;7.82;;;5.57;;
14474;SDS011;7323;50.848;4.334;2023-06-10T12:22:25;10.88;;;6.13;;
14474;SDS011;7323;50.848;4.334;2023-06-10T12:27:30;16.80;;;6.68;;
14474;SDS011;7323;50.848;4.334;2023-06-10T12:33:20;8.40;;;5.60;;
14474;SDS011;7323;50.848;4.334;2023-06-10T12:35:47;6.13;;;5.22;;
14474;SDS011;7323;50.848;4.334;2023-06-10T12:38:14;6.65;;;5.90;;
14474;SDS011;7323;50.848;4.334;2023-06-10T12:40:46;5.72;;;5.22;;
14474;SDS011;7323;50.848;4.334;2023-06-10T12:43:13;7.60;;;5.82;;
14474;SDS011;7323;50.848;4.334;2023-06-10T12:45:44;6.38;;;5.18;;
14474;SDS011;7323;50.848;4.334;2023-06-10T12:48:10;6.00;;;5.40;;
14474;SDS011;7323;50.848;4.334;2023-06-10T12:50:42;5.95;;;5.35;;
14474;SDS011;7323;50.848;4.334;2023-06-10T12:53:08;8.90;;;5.63;;
14474;SDS011;7323;50.848;4.334;2023-06-10T12:55:38;8.57;;;5.88;;
14474;SDS011;7323;50.848;4.334;2023-06-10T12:58:04;7.57;;;5.55;;
14474;SDS011;7323;50.848;4.334;2023-06-10T13:00:31;9.82;;;5.70;;
14474;SDS011;7323;50.848;4.334;2023-06-10T13:02:57;8.40;;;5.72;;
14474;SDS011;7323;50.848;4.334;2023-06-10T13:05:26;6.57;;;5.90;;
14474;SDS011;7323;50.848;4.334;2023-06-10T13:07:52;14.32;;;6.05;;
14474;SDS011;7323;50.848;4.334;2023-06-10T13:10:18;6.60;;;5.63;;
14474;SDS011;7323;50.848;4.334;2023-06-10T13:12:46;10.43;;;6.20;;
14474;SDS011;7323;50.848;4.334;2023-06-10T13:15:12;7.28;;;5.80;;
14474;SDS011;7323;50.848;4.334;2023-06-10T13:17:39;7.10;;;6.15;;
14474;SDS011;7323;50.848;4.334;2023-06-10T13:20:06;7.78;;;5.97;;
14474;SDS011;7323;50.848;4.334;2023-06-10T13:22:33;7.35;;;5.93;;
14474;SDS011;7323;50.848;4.334;2023-06-10T13:25:02;9.10;;;6.22;;
14474;SDS011;7323;50.848;4.334;2023-06-10T13:27:32;5.78;;;5.13;;
14474;SDS011;7323;50.848;4.334;2023-06-10T13:29:59;9.02;;;5.65;;
14474;SDS011;7323;50.848;4.334;2023-06-10T13:32:25;8.02;;;5.90;;
14474;SDS011;7323;50.848;4.334;2023-06-10T13:34:51;8.90;;;5.65;;
14474;SDS011;7323;50.848;4.334;2023-06-10T13:37:18;11.23;;;6.38;;
14474;SDS011;7323;50.848;4.334;2023-06-10T13:39:44;8.02;;;5.22;;
14474;SDS011;7323;50.848;4.334;2023-06-10T13:42:13;6.80;;;5.65;;
14474;SDS011;7323;50.848;4.334;2023-06-10T13:44:40;8.40;;;6.30;;
14474;SDS011;7323;50.848;4.334;2023-06-10T13:47:06;11.55;;;6.28;;
14474;SDS011;7323;50.848;4.334;2023-06-10T13:49:32;8.57;;;5.75;;
14474;SDS011;7323;50.848;4.334;2023-06-10T13:51:57;7.35;;;6.50;;
14474;SDS011;7323;50.848;4.334;2023-06-10T13:54:23;6.40;;;5.70;;
14474;SDS011;7323;50.848;4.334;2023-06-10T13:56:49;7.50;;;6.00;;
14474;SDS011;7323;50.848;4.334;2023-06-10T13:59:14;10.13;;;6.18;;
14474;SDS011;7323;50.848;4.334;2023-06-10T14:01:40;8.57;;;5.88;;
14474;SDS011;7323;50.848;4.334;2023-06-10T14:04:06;19.17;;;6.88;;
14474;SDS011;7323;50.848;4.334;2023-06-10T14:06:33;7.88;;;6.07;;
14474;SDS011;7323;50.848;4.334;2023-06-10T14:08:59;10.57;;;5.93;;
14474;SDS011;7323;50.848;4.334;2023-06-10T14:11:25;7.90;;;5.47;;
14474;SDS011;7323;50.848;4.334;2023-06-10T14:13:51;6.60;;;5.57;;
14474;SDS011;7323;50.848;4.334;2023-06-10T14:16:17;7.88;;;5.40;;
14474;SDS011;7323;50.848;4.334;2023-06-10T14:18:44;8.60;;;5.63;;
14474;SDS011;7323;50.848;4.334;2023-06-10T14:21:10;8.20;;;5.75;;
14474;SDS011;7323;50.848;4.334;2023-06-10T14:23:35;15.30;;;5.75;;
14474;SDS011;7323;50.848;4.334;2023-06-10T14:26:02;13.02;;;5.07;;
14474;SDS011;7323;50.848;4.334;2023-06-10T14:28:28;9.45;;;5.70;;
14474;SDS011;7323;50.848;4.334;2023-06-10T14:30:55;7.32;;;4.93;;
14474;SDS011;7323;50.848;4.334;2023-06-10T14:33:22;8.00;;;5.45;;
14474;SDS011;7323;50.848;4.334;2023-06-10T14:35:48;7.13;;;5.20;;
14474;SDS011;7323;50.848;4.334;2023-06-10T14:38:14;21.58;;;7.10;;
14474;SDS011;7323;50.848;4.334;2023-06-10T14:40:45;13.93;;;5.95;;
14474;SDS011;7323;50.848;4.334;2023-06-10T14:43:18;9.07;;;5.85;;
14474;SDS011;7323;50.848;4.334;2023-06-10T14:45:44;6.53;;;5.88;;
14474;SDS011;7323;50.848;4.334;2023-06-10T14:48:10;11.88;;;6.05;;
14474;SDS011;7323;50.848;4.334;2023-06-10T14:50:37;9.82;;;5.65;;
14474;SDS011;7323;50.848;4.334;2023-06-10T14:53:05;11.57;;;5.90;;
14474;SDS011;7323;50.848;4.334;2023-06-10T14:55:31;7.57;;;6.07;;
14474;SDS011;7323;50.848;4.334;2023-06-10T14:57:56;8.02;;;5.32;;
14474;SDS011;7323;50.848;4.334;2023-06-10T15:00:24;7.72;;;5.55;;
14474;SDS011;7323;50.848;4.334;2023-06-10T15:02:50;7.30;;;5.68;;
14474;SDS011;7323;50.848;4.334;2023-06-10T15:05:16;7.25;;;5.47;;
14474;SDS011;7323;50.848;4.334;2023-06-10T15:07:44;8.52;;;5.43;;
14474;SDS011;7323;50.848;4.334;2023-06-10T15:10:10;13.00;;;5.70;;
14474;SDS011;7323;50.848;4.334;2023-06-10T15:12:36;8.45;;;5.90;;
14474;SDS011;7323;50.848;4.334;2023-06-10T15:15:02;10.05;;;5.95;;
14474;SDS011;7323;50.848;4.334;2023-06-10T15:17:28;6.60;;;5.53;;
14474;SDS011;7323;50.848;4.334;2023-06-10T15:19:54;6.70;;;5.38;;
14474;SDS011;7323;50.848;4.334;2023-06-10T15:22:20;11.88;;;6.00;;
14474;SDS011;7323;50.848;4.334;2023-06-10T15:24:46;8.40;;;6.22;;
14474;SDS011;7323;50.848;4.334;2023-06-10T15:27:15;10.35;;;6.63;;
14474;SDS011;7323;50.848;4.334;2023-06-10T15:29:42;10.73;;;6.40;;
14474;SDS011;7323;50.848;4.334;2023-06-10T15:32:13;9.38;;;6.10;;
14474;SDS011;7323;50.848;4.334;2023-06-10T15:34:45;8.10;;;5.80;;
14474;SDS011;7323;50.848;4.334;2023-06-10T15:37:13;8.38;;;5.60;;
14474;SDS011;7323;50.848;4.334;2023-06-10T15:39:39;9.88;;;6.13;;
14474;SDS011;7323;50.848;4.334;2023-06-10T15:42:05;11.82;;;5.85;;
14474;SDS011;7323;50.848;4.334;2023-06-10T15:47:04;8.02;;;5.88;;
14474;SDS011;7323;50.848;4.334;2023-06-10T15:49:30;8.18;;;5.70;;
14474;SDS011;7323;50.848;4.334;2023-06-10T15:57:49;10.00;;;7.28;;
14474;SDS011;7323;50.848;4.334;2023-06-10T16:00:15;6.30;;;5.70;;
14474;SDS011;7323;50.848;4.334;2023-06-10T16:02:42;7.90;;;5.60;;
14474;SDS011;7323;50.848;4.334;2023-06-10T16:05:07;8.35;;;5.80;;
14474;SDS011;7323;50.848;4.334;2023-06-10T16:07:33;16.92;;;6.10;;
14474;SDS011;7323;50.848;4.334;2023-06-10T16:09:59;7.25;;;5.72;;
14474;SDS011;7323;50.848;4.334;2023-06-10T16:12:25;7.93;;;5.80;;
14474;SDS011;7323;50.848;4.334;2023-06-10T16:14:50;8.48;;;6.13;;
14474;SDS011;7323;50.848;4.334;2023-06-10T16:17:17;9.68;;;6.00;;
14474;SDS011;7323;50.848;4.334;2023-06-10T16:19:43;6.75;;;5.25;;
14474;SDS011;7323;50.848;4.334;2023-06-10T16:22:08;6.13;;;5.53;;
14474;SDS011;7323;50.848;4.334;2023-06-10T16:24:34;12.48;;;6.40;;
14474;SDS011;7323;50.848;4.334;2023-06-10T16:27:00;9.55;;;5.75;;
14474;SDS011;7323;50.848;4.334;2023-06-10T16:29:26;7.03;;;5.53;;
14474;SDS011;7323;50.848;4.334;2023-06-10T16:31:51;7.18;;;6.30;;